sim
Sign-in with your pilot id or email,
or register
Callsign
Passwort

Schedule Details

Flight Number: OEC2500
Departure: Munich Airport (EDDM) at 0840
Arrival: Manchester Airport (EGCC) at Time
Route: GIVM1N GIVMI Y101 TALAL T159 PETIX Z744 WUR T892 RIDSU UL608 LIRSU DCT DENUT UL610 LAM UL10 BUZAD UT420 TNT DAYN2A

Weather Information
Getting current METAR information for EDDM 211920Z 34001KT CAVOK 13/12 Q1016 NOSIG
Getting current METAR information for EGCC 211920Z AUTO VRB01KT 9999 NCD 15/11 Q1015

Schedule Frequency

Route Map